Time;durP1;ratioP1;P1;durP2;ratioP2;P2;SDS_P1;SDS_P2;PMS_P1;PMS_P2;Temp;Humidity;BMP_temperature;BMP_pressure;BME280_temperature;BME280_humidity;BME280_pressure;Samples;Min_cycle;Max_cycle;Signal;HPM_P1;HPM_P2
2024/04/05 00:00:13;;;;;;;5.30;2.07;;;11.90;99.90;;;;;;5047773;28;20445;-73
2024/04/05 00:02:59;;;;;;;6.83;2.30;;;11.90;99.90;;;;;;5047237;28;20838;-73
2024/04/05 00:05:44;;;;;;;10.43;2.40;;;12.00;99.90;;;;;;5048202;28;20469;-73
2024/04/05 00:08:33;;;;;;;6.53;2.03;;;12.00;99.90;;;;;;5047058;28;20501;-73
2024/04/05 00:11:17;;;;;;;8.83;2.23;;;12.00;99.90;;;;;;5045860;28;20454;-73
2024/04/05 00:14:03;;;;;;;7.80;2.90;;;12.00;99.90;;;;;;5045083;28;21158;-73
2024/04/05 00:16:49;;;;;;;7.10;2.00;;;12.00;99.90;;;;;;5045648;28;20433;-72
2024/04/05 00:19:34;;;;;;;10.10;2.27;;;12.10;99.90;;;;;;5043059;28;20462;-73
2024/04/05 00:22:21;;;;;;;6.77;2.17;;;12.00;99.90;;;;;;5045251;28;20437;-74
2024/04/05 00:25:07;;;;;;;2.57;1.67;;;12.10;99.90;;;;;;5040399;28;20629;-73
2024/04/05 00:27:54;;;;;;;8.60;2.90;;;12.10;99.90;;;;;;5039916;28;20977;-73
2024/04/05 00:30:40;;;;;;;12.67;2.03;;;12.20;99.90;;;;;;5043937;28;20427;-73
2024/04/05 00:33:24;;;;;;;8.20;2.00;;;12.10;99.90;;;;;;5041142;28;20434;-72
2024/04/05 00:36:11;;;;;;;6.93;2.13;;;12.20;99.90;;;;;;5039209;28;20428;-73
2024/04/05 00:38:57;;;;;;;13.53;2.30;;;12.10;99.90;;;;;;5043846;28;20441;-73
2024/04/05 00:41:42;;;;;;;15.37;2.00;;;12.10;99.90;;;;;;5049265;28;20433;-74
2024/04/05 00:44:27;;;;;;;3.37;1.60;;;12.10;99.90;;;;;;5041391;28;20478;-73
2024/04/05 00:47:12;;;;;;;10.03;2.77;;;12.10;99.90;;;;;;5041768;28;20434;-73
2024/04/05 00:49:59;;;;;;;8.60;2.13;;;12.10;99.90;;;;;;5041953;28;20863;-73
2024/04/05 00:52:45;;;;;;;5.37;2.60;;;12.10;99.90;;;;;;5047661;28;20775;-73
2024/04/05 00:55:31;;;;;;;8.27;2.10;;;12.10;99.90;;;;;;5044681;28;20458;-73
2024/04/05 00:58:17;;;;;;;10.13;2.40;;;12.10;99.90;;;;;;5046652;28;20438;-74
2024/04/05 01:01:02;;;;;;;8.00;2.60;;;12.20;99.90;;;;;;5045622;28;20835;-74
2024/04/05 01:03:48;;;;;;;4.00;2.03;;;12.20;99.90;;;;;;5045310;28;20849;-74
2024/04/05 01:06:33;;;;;;;7.37;2.23;;;12.20;99.90;;;;;;5047148;28;20801;-73
2024/04/05 01:09:19;;;;;;;7.33;2.03;;;12.20;99.90;;;;;;5037518;28;20845;-73
2024/04/05 01:12:06;;;;;;;11.80;2.03;;;12.20;99.90;;;;;;5046874;28;20498;-73
2024/04/05 01:14:52;;;;;;;4.43;1.53;;;12.20;99.90;;;;;;5046596;28;20567;-73
2024/04/05 01:17:37;;;;;;;28.10;2.30;;;12.20;99.90;;;;;;5044965;28;20458;-74
2024/04/05 01:20:24;;;;;;;9.50;2.20;;;12.20;99.90;;;;;;5044240;28;20442;-73
2024/04/05 01:23:10;;;;;;;9.13;2.70;;;12.20;99.90;;;;;;5038948;28;21008;-73
2024/04/05 01:25:57;;;;;;;8.10;1.97;;;12.20;99.90;;;;;;5046847;28;20421;-73
2024/04/05 01:28:42;;;;;;;9.57;2.17;;;12.20;99.90;;;;;;5045421;28;20459;-73
2024/04/05 01:31:27;;;;;;;9.63;2.77;;;12.30;99.90;;;;;;5045703;28;20427;-73
2024/04/05 01:34:12;;;;;;;8.17;2.10;;;12.30;99.90;;;;;;5047431;28;20454;-73
2024/04/05 01:36:59;;;;;;;16.93;2.00;;;12.30;99.90;;;;;;5043967;28;20443;-73
2024/04/05 01:39:43;;;;;;;9.70;1.90;;;12.30;99.90;;;;;;5043577;28;20940;-72
2024/04/05 01:42:30;;;;;;;7.30;1.77;;;12.30;99.90;;;;;;5044090;28;20422;-73
2024/04/05 01:45:15;;;;;;;7.53;1.60;;;12.30;99.90;;;;;;5046306;28;20541;-73
2024/04/05 01:48:00;;;;;;;6.83;2.13;;;12.30;99.90;;;;;;5046241;28;20485;-73
2024/04/05 01:50:45;;;;;;;14.80;2.30;;;12.30;99.90;;;;;;5046142;28;20430;-73
2024/04/05 01:53:30;;;;;;;7.33;1.63;;;12.20;99.90;;;;;;5045368;28;20965;-73
2024/04/05 01:56:15;;;;;;;8.40;1.93;;;12.20;99.90;;;;;;5040633;28;20584;-73
2024/04/05 01:59:02;;;;;;;8.00;2.07;;;12.20;99.90;;;;;;5044686;28;20417;-73
2024/04/05 02:01:46;;;;;;;5.20;1.90;;;12.20;99.90;;;;;;5043298;28;20803;-72
2024/04/05 02:04:32;;;;;;;3.40;1.67;;;12.20;99.90;;;;;;5043210;28;20601;-73
2024/04/05 02:07:17;;;;;;;4.43;1.83;;;12.20;99.90;;;;;;5047559;28;20577;-73
2024/04/05 02:10:02;;;;;;;10.87;2.90;;;12.20;99.90;;;;;;5048060;28;20478;-73
2024/04/05 02:12:47;;;;;;;9.90;2.23;;;12.20;99.90;;;;;;5045246;28;20428;-72
2024/04/05 02:15:35;;;;;;;5.73;1.87;;;12.20;99.90;;;;;;5047596;28;21095;-73
2024/04/05 02:18:19;;;;;;;7.03;1.70;;;12.20;99.90;;;;;;5046714;28;20450;-73
2024/04/05 02:21:05;;;;;;;8.60;2.17;;;12.30;99.90;;;;;;5047256;28;20491;-72
2024/04/05 02:23:49;;;;;;;19.30;2.40;;;12.30;99.90;;;;;;5050810;28;20417;-73
2024/04/05 02:26:35;;;;;;;4.50;1.93;;;12.20;99.90;;;;;;5049149;28;20445;-74
2024/04/05 02:29:20;;;;;;;3.87;2.10;;;12.30;99.90;;;;;;5048329;28;20543;-73
2024/04/05 02:32:07;;;;;;;7.43;2.20;;;12.30;99.90;;;;;;5047319;28;21023;-73
2024/04/05 02:34:52;;;;;;;7.63;2.20;;;12.40;99.90;;;;;;5047759;28;20613;-72
2024/04/05 02:37:37;;;;;;;4.00;1.93;;;12.40;99.90;;;;;;5050494;28;20435;-73
2024/04/05 02:40:22;;;;;;;9.73;2.07;;;12.40;99.90;;;;;;5050256;28;20910;-73
2024/04/05 02:43:08;;;;;;;5.37;1.80;;;12.40;99.90;;;;;;5049577;28;20430;-74
2024/04/05 02:45:52;;;;;;;13.43;2.40;;;12.40;99.90;;;;;;5049066;28;20457;-73
2024/04/05 02:48:39;;;;;;;5.33;2.37;;;12.40;99.90;;;;;;5047360;28;20471;-74
2024/04/05 02:51:24;;;;;;;5.10;1.87;;;12.40;99.90;;;;;;5049387;28;20397;-72
2024/04/05 02:54:09;;;;;;;6.93;1.90;;;12.40;99.90;;;;;;5047598;28;20511;-74
2024/04/05 02:56:54;;;;;;;3.53;1.50;;;12.40;99.90;;;;;;5050791;28;20437;-73
2024/04/05 02:59:40;;;;;;;7.37;2.83;;;12.40;99.90;;;;;;5048295;28;20516;-74
2024/04/05 03:02:25;;;;;;;7.07;2.30;;;12.40;99.90;;;;;;5048310;28;20414;-74
2024/04/05 03:05:13;;;;;;;3.57;1.77;;;12.40;99.90;;;;;;5048162;28;21550;-74
2024/04/05 03:07:57;;;;;;;8.63;1.90;;;12.40;99.90;;;;;;5048723;28;20450;-74
2024/04/05 03:10:44;;;;;;;6.60;1.87;;;12.40;99.90;;;;;;5049439;28;20457;-73
2024/04/05 03:13:29;;;;;;;11.93;1.87;;;12.40;99.90;;;;;;5049301;28;20942;-73
2024/04/05 03:16:14;;;;;;;12.07;1.90;;;12.40;99.90;;;;;;5047664;28;20892;-73
2024/04/05 03:18:59;;;;;;;2.87;2.37;;;12.50;99.90;;;;;;5048435;28;20446;-74
2024/04/05 03:21:46;;;;;;;6.83;2.07;;;12.50;99.90;;;;;;5048041;28;20496;-74
2024/04/05 03:24:30;;;;;;;6.90;2.40;;;12.50;99.90;;;;;;5045914;28;20452;-73
2024/04/05 03:27:16;;;;;;;6.67;1.97;;;12.50;99.90;;;;;;5050488;28;20413;-73
2024/04/05 03:30:01;;;;;;;17.57;2.20;;;12.50;99.90;;;;;;5047630;28;20513;-72
2024/04/05 03:32:47;;;;;;;7.70;2.10;;;12.50;99.90;;;;;;5046845;28;20457;-73
2024/04/05 03:35:36;;;;;;;5.87;2.17;;;12.50;99.90;;;;;;5046369;28;20914;-74
2024/04/05 03:38:23;;;;;;;5.90;2.00;;;12.50;99.90;;;;;;5048279;28;20425;-74
2024/04/05 03:41:09;;;;;;;12.10;2.43;;;12.50;99.90;;;;;;5047327;28;20433;-74
2024/04/05 03:43:55;;;;;;;4.90;2.00;;;12.50;99.90;;;;;;5046788;28;20435;-72
2024/04/05 03:46:40;;;;;;;17.43;2.70;;;12.50;99.90;;;;;;5044917;28;21008;-73
2024/04/05 03:49:28;;;;;;;13.17;1.80;;;12.60;99.90;;;;;;5044764;28;20479;-73
2024/04/05 03:52:13;;;;;;;7.57;2.30;;;12.50;99.90;;;;;;5040177;28;20985;-74
2024/04/05 03:55:00;;;;;;;10.60;1.83;;;12.50;99.90;;;;;;5038763;28;21055;-73
2024/04/05 03:57:47;;;;;;;7.80;2.80;;;12.60;99.90;;;;;;5040765;28;20825;-74
2024/04/05 04:00:32;;;;;;;8.00;2.03;;;12.50;99.90;;;;;;5037125;28;20506;-74
2024/04/05 04:03:18;;;;;;;4.80;2.10;;;12.50;99.90;;;;;;5047175;28;20483;-73
2024/04/05 04:06:04;;;;;;;36.27;2.43;;;12.60;99.90;;;;;;5045271;28;20859;-73
2024/04/05 04:08:49;;;;;;;4.83;2.10;;;12.60;99.90;;;;;;5046282;28;20438;-73
2024/04/05 04:11:36;;;;;;;20.33;1.77;;;12.50;99.90;;;;;;5046058;28;21124;-73
2024/04/05 04:14:22;;;;;;;11.00;2.80;;;12.50;99.90;;;;;;5041701;28;20522;-74
2024/04/05 04:17:07;;;;;;;8.77;2.63;;;12.50;99.90;;;;;;5046789;28;20585;-71
2024/04/05 04:19:54;;;;;;;10.27;2.63;;;12.50;99.90;;;;;;5047375;28;20446;-73
2024/04/05 04:22:38;;;;;;;6.60;2.27;;;12.50;99.90;;;;;;5048683;28;20520;-73
2024/04/05 04:25:25;;;;;;;17.43;3.20;;;12.50;99.90;;;;;;5046533;28;20470;-73
2024/04/05 04:28:11;;;;;;;6.03;1.90;;;12.50;99.90;;;;;;5046781;28;20426;-73
2024/04/05 04:30:57;;;;;;;5.43;2.27;;;12.60;99.90;;;;;;5046302;28;20546;-74
2024/04/05 04:33:41;;;;;;;4.63;2.00;;;12.60;99.90;;;;;;5044947;28;20527;-73
2024/04/05 04:36:27;;;;;;;14.73;1.97;;;12.60;99.90;;;;;;5049317;28;20440;-73
2024/04/05 04:39:11;;;;;;;7.50;2.30;;;12.70;99.90;;;;;;5047761;28;21053;-73
2024/04/05 04:41:57;;;;;;;10.20;2.23;;;12.70;99.90;;;;;;5038436;28;20454;-73
2024/04/05 04:44:43;;;;;;;5.30;1.80;;;12.70;99.90;;;;;;5037441;28;20534;-73
2024/04/05 04:47:29;;;;;;;11.90;2.60;;;12.80;99.90;;;;;;5039308;28;20430;-73
2024/04/05 04:50:15;;;;;;;6.60;1.60;;;12.80;99.90;;;;;;5037250;28;20536;-73
2024/04/05 04:53:00;;;;;;;12.40;2.20;;;12.70;99.90;;;;;;5037872;28;20448;-72
2024/04/05 04:55:46;;;;;;;6.27;1.60;;;12.70;99.90;;;;;;5037093;28;21024;-74
2024/04/05 04:58:33;;;;;;;11.00;2.50;;;12.70;99.90;;;;;;5040632;28;20478;-73
2024/04/05 05:01:20;;;;;;;5.77;1.93;;;12.60;99.90;;;;;;5040732;28;21107;-73
2024/04/05 05:04:06;;;;;;;14.93;2.73;;;12.60;99.90;;;;;;5036035;28;20496;-73
2024/04/05 05:06:51;;;;;;;5.27;2.13;;;12.60;99.90;;;;;;5037745;28;21152;-73
2024/04/05 05:09:37;;;;;;;3.87;1.73;;;12.60;99.90;;;;;;5040937;28;20503;-72
2024/04/05 05:12:21;;;;;;;13.73;2.37;;;12.50;99.90;;;;;;5043427;28;20501;-73
2024/04/05 05:15:07;;;;;;;12.83;1.87;;;12.50;99.90;;;;;;5042287;28;20498;-71
2024/04/05 05:17:53;;;;;;;14.93;3.10;;;12.50;99.90;;;;;;5040294;28;20521;-73
2024/04/05 05:20:45;;;;;;;10.10;1.60;;;12.50;99.90;;;;;;5040327;28;20593;-73
2024/04/05 05:23:30;;;;;;;7.70;2.80;;;12.40;99.90;;;;;;5041434;28;20557;-72
2024/04/05 05:26:16;;;;;;;7.60;2.03;;;12.40;99.90;;;;;;5037360;28;20469;-74
2024/04/05 05:29:01;;;;;;;5.57;1.97;;;12.40;99.90;;;;;;5040886;28;20446;-73
2024/04/05 05:31:46;;;;;;;16.33;2.17;;;12.30;99.90;;;;;;5043784;28;20860;-73
2024/04/05 05:34:32;;;;;;;20.40;2.40;;;12.30;99.90;;;;;;5040977;28;20826;-73
2024/04/05 05:37:18;;;;;;;13.13;2.57;;;12.30;99.90;;;;;;5040310;28;21049;-73
2024/04/05 05:40:04;;;;;;;6.30;1.63;;;12.30;99.90;;;;;;5041105;28;20528;-73
2024/04/05 05:42:49;;;;;;;2.87;1.60;;;12.30;99.90;;;;;;5042565;28;20982;-72
2024/04/05 05:45:34;;;;;;;18.13;2.30;;;12.30;99.90;;;;;;5041957;28;20602;-73
2024/04/05 05:48:19;;;;;;;7.00;1.90;;;12.40;99.90;;;;;;5042414;28;20471;-73
2024/04/05 05:51:06;;;;;;;11.63;2.40;;;12.50;99.90;;;;;;5040243;28;20478;-74
2024/04/05 05:53:51;;;;;;;7.43;1.80;;;12.50;99.90;;;;;;5044968;28;20466;-73
2024/04/05 05:56:36;;;;;;;7.70;1.90;;;12.50;99.90;;;;;;5044509;28;20434;-73
2024/04/05 05:59:22;;;;;;;13.07;2.20;;;12.50;99.90;;;;;;5044529;28;20442;-73
2024/04/05 06:02:06;;;;;;;9.57;2.00;;;12.60;99.90;;;;;;5042690;28;20433;-73
2024/04/05 06:04:52;;;;;;;7.10;1.73;;;12.60;99.90;;;;;;5041505;28;20475;-74
2024/04/05 06:07:38;;;;;;;6.33;1.53;;;12.60;99.90;;;;;;5047441;28;21175;-73
2024/04/05 06:10:24;;;;;;;12.37;2.20;;;12.60;99.90;;;;;;5048038;28;20449;-73
2024/04/05 06:13:09;;;;;;;9.00;2.70;;;12.70;99.90;;;;;;5047707;28;20438;-73
2024/04/05 06:15:57;;;;;;;7.83;2.10;;;12.70;99.90;;;;;;5047523;28;20981;-73
2024/04/05 06:18:45;;;;;;;7.67;2.37;;;12.80;99.90;;;;;;5043104;28;20439;-74
2024/04/05 06:21:31;;;;;;;9.90;2.10;;;12.80;99.90;;;;;;5047627;28;20801;-73
2024/04/05 06:24:18;;;;;;;7.97;1.93;;;12.90;99.90;;;;;;5047972;28;20452;-73
2024/04/05 06:27:03;;;;;;;5.50;1.90;;;13.00;99.90;;;;;;5050959;28;20497;-73
2024/04/05 06:29:49;;;;;;;12.43;2.00;;;13.10;99.90;;;;;;5049233;28;20474;-73
2024/04/05 06:32:34;;;;;;;5.50;2.40;;;13.20;99.90;;;;;;5049346;28;20566;-73
2024/04/05 06:35:20;;;;;;;8.60;2.20;;;13.30;99.90;;;;;;5049385;28;20451;-73
2024/04/05 06:38:04;;;;;;;5.80;1.90;;;13.40;99.90;;;;;;5046261;28;20466;-73
2024/04/05 06:40:57;;;;;;;9.60;1.90;;;13.50;99.90;;;;;;5049693;28;20447;-74
2024/04/05 06:43:43;;;;;;;9.87;2.87;;;13.60;99.90;;;;;;5042245;28;20940;-72
2024/04/05 06:46:27;;;;;;;7.57;2.33;;;13.80;99.90;;;;;;5042735;28;20459;-73
2024/04/05 06:49:14;;;;;;;6.73;1.90;;;13.90;99.90;;;;;;5035070;28;20471;-73
2024/04/05 06:52:00;;;;;;;4.00;1.97;;;14.10;99.90;;;;;;5047768;28;20447;-73
2024/04/05 06:54:46;;;;;;;10.43;2.13;;;14.30;99.90;;;;;;5040098;28;20467;-74
2024/04/05 06:57:33;;;;;;;12.03;3.47;;;14.40;99.90;;;;;;5042121;28;20564;-73
2024/04/05 07:00:19;;;;;;;6.97;3.80;;;14.50;99.90;;;;;;5040544;28;20558;-73
2024/04/05 07:03:04;;;;;;;10.63;2.60;;;14.60;99.90;;;;;;5048570;28;20940;-72
2024/04/05 07:05:59;;;;;;;11.63;5.67;;;14.70;99.90;;;;;;5044600;28;20446;-73
2024/04/05 07:08:45;;;;;;;11.33;6.70;;;14.80;99.90;;;;;;5036565;28;20976;-74
2024/04/05 07:11:31;;;;;;;7.60;4.00;;;14.90;99.90;;;;;;5046422;28;20537;-73
2024/04/05 07:14:17;;;;;;;5.60;2.17;;;15.00;99.90;;;;;;5043276;28;21019;-73
2024/04/05 07:17:03;;;;;;;6.90;2.07;;;15.00;99.90;;;;;;5045432;28;21149;-72
2024/04/05 07:19:47;;;;;;;3.37;1.67;;;15.10;99.90;;;;;;5042535;28;20505;-74
2024/04/05 07:22:33;;;;;;;6.60;2.03;;;15.20;99.90;;;;;;5040678;28;20479;-74
2024/04/05 07:25:18;;;;;;;6.23;2.03;;;15.30;99.90;;;;;;5045312;28;20465;-73
2024/04/05 07:28:04;;;;;;;4.70;1.60;;;15.40;99.90;;;;;;5049393;28;20386;-74
2024/04/05 07:30:51;;;;;;;4.80;1.80;;;15.50;99.90;;;;;;5043693;28;20598;-73
2024/04/05 07:33:36;;;;;;;3.63;1.20;;;15.60;99.90;;;;;;5042824;28;20787;-72
2024/04/05 07:36:21;;;;;;;5.67;1.63;;;15.70;99.90;;;;;;5037189;28;20888;-74
2024/04/05 07:39:08;;;;;;;5.40;1.73;;;15.70;99.90;;;;;;5041040;28;20455;-73
2024/04/05 07:41:53;;;;;;;10.33;1.77;;;15.80;99.90;;;;;;5039365;28;20974;-74
2024/04/05 07:44:39;;;;;;;2.80;1.43;;;15.90;99.90;;;;;;5038366;28;20474;-73
2024/04/05 07:47:26;;;;;;;6.67;1.73;;;16.00;99.90;;;;;;5040201;28;20467;-74
2024/04/05 07:50:10;;;;;;;7.20;1.67;;;16.10;99.90;;;;;;5040670;28;21451;-74
2024/04/05 07:52:56;;;;;;;3.20;1.37;;;16.20;99.90;;;;;;5039125;28;21168;-73
2024/04/05 07:55:41;;;;;;;5.50;1.50;;;16.30;99.90;;;;;;5039030;28;20454;-73
2024/04/05 07:58:26;;;;;;;8.47;1.33;;;16.40;99.90;;;;;;5042508;28;20647;-74
2024/04/05 08:01:12;;;;;;;5.80;1.40;;;16.50;99.90;;;;;;5041353;28;20950;-73
2024/04/05 08:04:00;;;;;;;3.60;1.17;;;16.60;99.90;;;;;;5039157;28;20468;-74
2024/04/05 08:06:44;;;;;;;7.60;1.33;;;16.60;99.90;;;;;;5038157;28;20429;-73
2024/04/05 08:09:30;;;;;;;6.30;1.90;;;16.60;99.90;;;;;;5039050;28;20531;-72
2024/04/05 08:12:14;;;;;;;10.63;1.60;;;16.70;99.90;;;;;;5039719;28;20447;-72
2024/04/05 08:15:00;;;;;;;5.60;1.20;;;16.70;99.90;;;;;;5042392;28;21067;-74
2024/04/05 08:17:44;;;;;;;8.83;1.70;;;16.70;99.90;;;;;;5039489;28;20425;-73
2024/04/05 08:20:31;;;;;;;5.90;1.13;;;16.70;99.90;;;;;;5039522;28;20963;-74
2024/04/05 08:23:16;;;;;;;7.97;1.60;;;16.80;99.90;;;;;;5037898;28;20467;-72
2024/04/05 08:26:02;;;;;;;4.80;1.40;;;16.80;99.90;;;;;;5042473;28;21025;-73
2024/04/05 08:28:46;;;;;;;4.20;1.60;;;16.90;99.90;;;;;;5037885;28;21020;-73
2024/04/05 08:31:32;;;;;;;4.00;1.37;;;17.10;99.90;;;;;;5046596;28;20793;-74
2024/04/05 08:34:18;;;;;;;4.03;1.40;;;17.20;99.90;;;;;;5038292;28;20460;-71
2024/04/05 08:37:05;;;;;;;5.47;1.63;;;17.30;99.90;;;;;;5037465;28;20443;-73
2024/04/05 08:39:50;;;;;;;5.50;2.27;;;17.40;99.90;;;;;;5040687;28;20455;-73
2024/04/05 08:42:37;;;;;;;5.53;1.57;;;17.50;99.90;;;;;;5041580;28;20451;-74
2024/04/05 08:45:23;;;;;;;5.17;1.80;;;17.70;99.90;;;;;;5042134;28;20947;-74
2024/04/05 08:48:09;;;;;;;7.03;1.50;;;17.70;99.90;;;;;;5041411;28;20442;-73
2024/04/05 08:50:57;;;;;;;4.83;1.60;;;17.80;99.90;;;;;;5041606;28;20483;-72
2024/04/05 08:53:43;;;;;;;4.30;1.37;;;17.90;99.90;;;;;;5042282;28;21076;-72
2024/04/05 08:56:30;;;;;;;7.03;1.30;;;18.00;99.90;;;;;;5037506;28;20446;-74
2024/04/05 08:59:17;;;;;;;5.07;1.97;;;18.10;99.90;;;;;;5039385;28;20431;-73
2024/04/05 09:02:03;;;;;;;4.50;1.30;;;18.20;99.90;;;;;;5038790;28;20462;-74
2024/04/05 09:04:49;;;;;;;3.10;1.10;;;18.20;99.90;;;;;;5048909;22;20492;-86
2024/04/05 09:07:35;;;;;;;3.90;1.70;;;18.30;99.90;;;;;;5046630;28;21023;-86
2024/04/05 09:10:22;;;;;;;4.03;1.53;;;18.40;99.90;;;;;;5024670;28;22681;-85
2024/04/05 09:13:06;;;;;;;4.70;1.77;;;18.40;99.90;;;;;;5021004;28;20453;-86
2024/04/05 09:15:52;;;;;;;6.00;1.40;;;18.50;99.90;;;;;;5020197;28;20468;-87
2024/04/05 09:18:37;;;;;;;9.17;2.03;;;18.60;99.90;;;;;;5016040;28;20492;-86
2024/04/05 09:21:23;;;;;;;10.50;2.80;;;18.70;99.90;;;;;;5020780;28;20424;-86
2024/04/05 09:24:08;;;;;;;10.70;2.80;;;18.80;99.90;;;;;;5016213;28;20492;-86
2024/04/05 09:27:03;;;;;;;8.93;2.03;;;18.80;99.90;;;;;;5023248;28;20509;-86
2024/04/05 09:29:47;;;;;;;4.30;1.60;;;18.90;99.90;;;;;;5020559;28;20449;-85
2024/04/05 09:32:33;;;;;;;3.90;1.53;;;18.80;99.90;;;;;;5021630;28;21006;-86
2024/04/05 09:35:19;;;;;;;7.63;1.37;;;18.90;99.90;;;;;;5017479;28;20503;-86
2024/04/05 09:38:06;;;;;;;3.70;1.10;;;18.90;99.90;;;;;;5019189;28;20804;-86
2024/04/05 09:40:52;;;;;;;7.00;1.80;;;19.00;99.90;;;;;;5021024;28;21052;-86
2024/04/05 09:43:41;;;;;;;2.50;1.20;;;19.00;99.90;;;;;;5016741;28;21169;-86
2024/04/05 09:46:27;;;;;;;3.87;1.70;;;19.00;99.90;;;;;;5020327;28;20507;-86
2024/04/05 09:49:14;;;;;;;3.70;1.33;;;19.10;99.90;;;;;;5024728;28;20838;-86
2024/04/05 09:52:09;;;;;;;3.67;1.33;;;19.20;99.90;;;;;;5021017;28;20453;-87
2024/04/05 09:55:00;;;;;;;4.90;1.97;;;19.30;99.90;;;;;;5020678;28;20421;-85
2024/04/05 09:57:45;;;;;;;4.03;1.40;;;19.40;99.90;;;;;;5022946;28;20438;-85
2024/04/05 10:00:33;;;;;;;7.50;1.47;;;19.50;99.90;;;;;;5021348;28;20975;-85
2024/04/05 10:03:18;;;;;;;5.30;1.40;;;19.40;99.90;;;;;;5021951;28;20458;-84
2024/04/05 10:06:14;;;;;;;9.40;1.47;;;19.50;99.90;;;;;;5021860;28;20554;-84
2024/04/05 10:08:58;;;;;;;6.70;1.13;;;19.50;99.90;;;;;;5019936;28;20469;-84
2024/04/05 10:11:45;;;;;;;3.77;1.10;;;19.40;99.90;;;;;;5017699;28;20504;-84
2024/04/05 10:14:31;;;;;;;6.47;1.27;;;19.50;96.90;;;;;;5017166;28;20511;-84
2024/04/05 10:17:18;;;;;;;2.97;1.03;;;19.40;94.20;;;;;;5017750;28;20501;-85
2024/04/05 10:20:05;;;;;;;4.63;1.40;;;19.50;95.60;;;;;;5023822;28;21598;-84
2024/04/05 10:22:59;;;;;;;9.73;1.47;;;19.50;99.90;;;;;;5019419;28;22381;-84
2024/04/05 10:25:44;;;;;;;7.03;1.60;;;19.50;95.50;;;;;;5023643;28;20544;-84
2024/04/05 10:28:33;;;;;;;2.90;0.80;;;19.60;91.80;;;;;;5024217;28;20464;-84
2024/04/05 10:31:17;;;;;;;2.10;0.83;;;19.70;95.20;;;;;;5025356;28;20485;-85
2024/04/05 10:34:04;;;;;;;3.23;1.00;;;19.80;92.40;;;;;;5021907;28;20462;-84
2024/04/05 10:36:50;;;;;;;3.43;1.10;;;19.90;92.00;;;;;;5027162;28;20983;-84
2024/04/05 10:39:35;;;;;;;3.13;1.00;;;20.00;94.00;;;;;;5028697;28;20458;-83
2024/04/05 10:42:24;;;;;;;3.80;1.37;;;20.00;91.00;;;;;;5030163;28;20813;-83
2024/04/05 10:45:12;;;;;;;4.67;1.30;;;20.10;84.00;;;;;;5024268;28;20438;-84
2024/04/05 10:47:57;;;;;;;3.17;1.00;;;20.10;85.30;;;;;;5030372;28;20470;-84
2024/04/05 10:50:44;;;;;;;4.30;1.10;;;20.30;82.70;;;;;;5027844;28;20513;-84
2024/04/05 10:53:29;;;;;;;7.37;1.43;;;20.30;83.10;;;;;;5026663;28;20441;-83
2024/04/05 10:56:15;;;;;;;15.77;1.90;;;20.50;82.50;;;;;;5027155;28;20466;-84
2024/04/05 10:59:00;;;;;;;4.20;1.37;;;20.60;77.90;;;;;;5030552;28;20974;-84
2024/04/05 11:01:47;;;;;;;3.87;1.10;;;20.70;73.80;;;;;;5026387;28;20984;-84
2024/04/05 11:04:32;;;;;;;4.27;1.30;;;20.70;66.50;;;;;;5027255;28;20929;-85
2024/04/05 11:07:20;;;;;;;6.70;1.17;;;20.80;56.80;;;;;;5031529;28;20428;-84
2024/04/05 11:10:18;;;;;;;6.00;1.23;;;20.80;53.10;;;;;;5028570;28;20453;-84
2024/04/05 11:13:16;;;;;;;2.90;1.03;;;20.80;56.80;;;;;;5028650;28;20949;-83
2024/04/05 11:16:02;;;;;;;2.57;0.97;;;20.80;54.20;;;;;;5029997;28;20414;-84
2024/04/05 11:18:49;;;;;;;3.90;1.20;;;20.80;53.00;;;;;;5028025;28;20741;-84
2024/04/05 11:21:34;;;;;;;3.00;0.93;;;20.80;53.60;;;;;;5029868;28;21020;-84
2024/04/05 11:24:22;;;;;;;3.93;1.83;;;20.70;54.10;;;;;;5028350;28;20809;-83
2024/04/05 11:27:07;;;;;;;2.10;1.03;;;20.60;52.30;;;;;;5026410;28;20439;-84
2024/04/05 11:29:53;;;;;;;6.10;1.37;;;20.60;55.70;;;;;;5027330;28;20505;-83
2024/04/05 11:32:41;;;;;;;2.93;1.00;;;20.50;53.80;;;;;;5024321;28;20580;-83
2024/04/05 11:35:27;;;;;;;4.53;1.30;;;20.40;59.30;;;;;;5021938;28;20472;-82
2024/04/05 11:38:12;;;;;;;4.10;1.40;;;20.40;62.00;;;;;;5027841;28;20474;-83
2024/04/05 11:40:59;;;;;;;2.67;1.13;;;20.30;63.20;;;;;;5030165;28;20774;-84
2024/04/05 11:43:44;;;;;;;2.87;1.20;;;20.30;61.40;;;;;;5023996;28;20458;-85
2024/04/05 11:46:30;;;;;;;5.77;1.47;;;20.30;60.70;;;;;;5029962;28;20448;-86
2024/04/05 11:49:15;;;;;;;3.60;1.10;;;20.20;61.30;;;;;;5028156;28;20433;-86
2024/04/05 11:52:00;;;;;;;4.50;1.60;;;20.10;58.30;;;;;;5027276;28;20531;-85
2024/04/05 11:54:46;;;;;;;5.93;1.57;;;20.00;55.30;;;;;;5026551;28;20439;-86
2024/04/05 11:57:33;;;;;;;6.23;1.57;;;19.90;54.10;;;;;;5029687;28;20760;-85
2024/04/05 12:00:18;;;;;;;5.77;1.50;;;19.90;53.30;;;;;;5026524;28;20436;-86
2024/04/05 12:03:04;;;;;;;3.27;1.00;;;19.80;53.10;;;;;;5025053;28;20424;-85
2024/04/05 12:05:51;;;;;;;4.27;1.03;;;19.80;52.10;;;;;;5024160;28;20572;-85
2024/04/05 12:08:36;;;;;;;6.77;1.17;;;19.80;58.10;;;;;;5021515;28;20452;-86
2024/04/05 12:11:21;;;;;;;3.30;1.20;;;19.80;53.50;;;;;;5023355;28;20455;-85
2024/04/05 12:14:09;;;;;;;2.43;1.10;;;19.80;47.10;;;;;;5024578;28;20433;-85
2024/04/05 12:16:54;;;;;;;2.63;0.97;;;19.90;51.80;;;;;;5025419;28;20973;-85
2024/04/05 12:19:40;;;;;;;3.47;1.47;;;20.00;49.20;;;;;;5024222;28;20489;-88
2024/04/05 12:22:25;;;;;;;2.87;1.07;;;20.10;50.30;;;;;;5024570;28;20448;-86
2024/04/05 12:25:10;;;;;;;4.63;1.27;;;20.20;47.90;;;;;;5021656;28;20430;-85
2024/04/05 12:27:55;;;;;;;4.53;1.10;;;20.30;48.00;;;;;;5025175;28;20588;-85
2024/04/05 12:30:42;;;;;;;2.97;1.20;;;20.30;46.70;;;;;;5027768;28;20520;-85
2024/04/05 12:33:27;;;;;;;6.20;1.63;;;20.30;46.50;;;;;;5024830;28;20972;-86
2024/04/05 12:36:14;;;;;;;3.90;1.40;;;20.20;44.60;;;;;;5028238;28;20449;-85
2024/04/05 12:39:06;;;;;;;4.07;1.10;;;20.10;47.50;;;;;;5024596;28;20481;-86
2024/04/05 12:41:51;;;;;;;4.00;1.20;;;20.00;52.50;;;;;;5025676;28;20855;-85
2024/04/05 12:44:36;;;;;;;2.80;1.20;;;20.00;51.60;;;;;;5024851;28;20454;-85
2024/04/05 12:47:23;;;;;;;4.50;1.53;;;20.00;56.40;;;;;;5027053;28;20792;-85
2024/04/05 12:50:08;;;;;;;4.27;1.50;;;20.10;56.00;;;;;;5022621;28;21083;-85
2024/04/05 12:52:54;;;;;;;4.33;1.13;;;20.10;56.50;;;;;;5024197;28;20432;-86
2024/04/05 12:55:39;;;;;;;3.60;1.53;;;20.20;53.60;;;;;;5025457;28;20601;-85
2024/04/05 12:58:29;;;;;;;2.60;1.47;;;20.20;50.00;;;;;;5024770;28;20484;-85
2024/04/05 13:01:14;;;;;;;4.60;1.40;;;20.20;55.30;;;;;;5023176;28;20474;-85
2024/04/05 13:04:01;;;;;;;3.53;1.10;;;20.20;57.20;;;;;;5025988;28;20521;-85
2024/04/05 13:06:45;;;;;;;10.07;1.40;;;20.20;52.60;;;;;;5025137;28;20444;-85
2024/04/05 13:09:31;;;;;;;5.43;1.40;;;20.10;50.80;;;;;;5025865;28;20469;-85
2024/04/05 13:12:16;;;;;;;3.67;1.17;;;20.20;43.40;;;;;;5027758;28;20450;-85
2024/04/05 13:15:02;;;;;;;5.10;1.50;;;20.20;51.30;;;;;;5024533;28;20429;-85
2024/04/05 13:17:47;;;;;;;4.00;1.10;;;20.20;49.10;;;;;;5024773;28;20878;-85
2024/04/05 13:20:34;;;;;;;3.77;1.27;;;20.20;48.30;;;;;;5024839;28;20511;-85
2024/04/05 13:23:18;;;;;;;5.63;1.30;;;20.30;48.40;;;;;;5020946;28;21205;-85
2024/04/05 13:26:10;;;;;;;3.40;1.20;;;20.20;48.10;;;;;;5023671;28;20432;-86
2024/04/05 13:28:55;;;;;;;3.43;1.10;;;20.20;52.40;;;;;;5026871;28;20458;-85
2024/04/05 13:31:41;;;;;;;4.57;1.70;;;20.20;53.50;;;;;;5025269;28;20457;-86
2024/04/05 13:34:26;;;;;;;3.27;1.20;;;20.10;51.50;;;;;;5025191;28;20503;-86
2024/04/05 13:37:12;;;;;;;3.17;1.37;;;20.10;54.10;;;;;;5026101;28;20671;-85
2024/04/05 13:39:57;;;;;;;3.87;1.50;;;20.00;55.10;;;;;;5025575;28;20490;-85
2024/04/05 13:42:46;;;;;;;3.13;1.17;;;19.90;54.40;;;;;;5024994;28;20450;-85
2024/04/05 13:45:31;;;;;;;5.00;1.40;;;19.80;59.50;;;;;;5020814;28;20428;-85
2024/04/05 13:48:17;;;;;;;6.17;1.90;;;19.80;59.80;;;;;;5027977;28;20579;-85
2024/04/05 13:51:02;;;;;;;4.57;1.23;;;19.70;60.70;;;;;;5026444;28;20479;-85
2024/04/05 13:53:49;;;;;;;4.63;1.90;;;19.70;60.60;;;;;;5026516;28;20456;-85
2024/04/05 13:56:35;;;;;;;5.17;1.57;;;19.70;63.60;;;;;;5028638;28;20465;-85
2024/04/05 13:59:21;;;;;;;7.10;1.67;;;19.60;64.60;;;;;;5021749;28;21006;-85
2024/04/05 14:02:08;;;;;;;4.63;1.83;;;19.60;66.00;;;;;;5028934;28;20813;-85
2024/04/05 14:05:00;;;;;;;2.47;1.40;;;19.60;67.30;;;;;;5031260;28;20849;-85
2024/04/05 14:07:44;;;;;;;5.10;1.87;;;19.50;68.80;;;;;;5029124;28;20448;-86
2024/04/05 14:10:34;;;;;;;4.80;2.10;;;19.50;68.20;;;;;;5028528;28;20466;-85
2024/04/05 14:13:20;;;;;;;7.13;1.57;;;19.40;72.80;;;;;;5030363;28;20438;-85
2024/04/05 14:16:07;;;;;;;4.90;1.53;;;19.40;70.90;;;;;;5027820;28;20501;-86
2024/04/05 14:18:52;;;;;;;3.97;1.50;;;19.40;82.50;;;;;;5029517;28;20625;-85
2024/04/05 14:21:38;;;;;;;3.20;1.10;;;19.30;76.00;;;;;;5024860;28;20443;-84